Time;durP1;ratioP1;P1;durP2;ratioP2;P2;SDS_P1;SDS_P2;PMS_P1;PMS_P2;Temp;Humidity;BMP_temperature;BMP_pressure;BME280_temperature;BME280_humidity;BME280_pressure;Samples;Min_cycle;Max_cycle;Signal;HPM_P1;HPM_P2
2022/12/11 00:00:42;;;;;;;24.77;18.05;;;;;;;0.14;73.42;99336.88;1087436;54;20030;-82
2022/12/11 00:01:46;;;;;;;24.33;16.45;;;;;;;0.21;72.96;99339.13;1087532;54;20069;-82
2022/12/11 00:02:50;;;;;;;28.33;19.80;;;;;;;-0.11;73.69;99342.81;1088185;46;20019;-81
2022/12/11 00:03:52;;;;;;;27.75;19.17;;;;;;;-0.19;74.21;99343.28;1087551;54;20030;-82
2022/12/11 00:04:56;;;;;;;28.23;18.42;;;;;;;-0.06;73.94;99347.78;1087441;54;21182;-81
2022/12/11 00:05:57;;;;;;;27.40;18.17;;;;;;;0.09;73.44;99338.13;1087478;54;20038;-81
2022/12/11 00:07:01;;;;;;;26.92;18.77;;;;;;;-0.10;73.70;99346.31;1087391;54;20026;-81
2022/12/11 00:08:03;;;;;;;30.23;20.45;;;;;;;-0.36;74.62;99346.06;1095341;31;20784;-81
2022/12/11 00:09:09;;;;;;;30.77;21.75;;;;;;;-0.40;74.75;99349.84;1087457;54;20998;-81
2022/12/11 00:10:10;;;;;;;31.38;20.58;;;;;;;-0.45;75.09;99351.88;1087551;54;20042;-82
2022/12/11 00:11:15;;;;;;;29.92;20.67;;;;;;;-0.51;75.38;99348.69;1087500;54;20037;-81
2022/12/11 00:12:17;;;;;;;31.58;21.05;;;;;;;-0.59;75.63;99356.19;1087534;54;20035;-79
2022/12/11 00:13:21;;;;;;;30.95;21.17;;;;;;;-0.60;75.80;99344.00;1087583;54;20063;-82
2022/12/11 00:14:23;;;;;;;34.17;21.67;;;;;;;-0.66;76.14;99347.00;1087477;54;20049;-82
2022/12/11 00:15:29;;;;;;;28.60;20.92;;;;;;;-0.60;76.23;99351.00;1087526;54;20075;-80
2022/12/11 00:16:30;;;;;;;33.10;22.05;;;;;;;-0.66;76.38;99339.94;1087496;54;20030;-81
2022/12/11 00:17:38;;;;;;;31.55;20.73;;;;;;;-0.71;76.56;99341.97;1087549;54;20033;-82
2022/12/11 00:18:39;;;;;;;30.80;21.15;;;;;;;-0.72;76.91;99349.97;1087774;46;20038;-81
2022/12/11 00:19:43;;;;;;;31.52;22.13;;;;;;;-0.71;76.74;99339.34;1088509;46;20037;-80
2022/12/11 00:20:45;;;;;;;31.60;20.98;;;;;;;-0.67;76.83;99345.31;1087906;54;20027;-82
2022/12/11 00:21:49;;;;;;;29.30;20.13;;;;;;;-0.74;77.10;99344.81;1087912;54;20030;-82
2022/12/11 00:22:50;;;;;;;27.40;19.88;;;;;;;-0.59;76.55;99347.44;1087815;54;20061;-82
2022/12/11 00:23:55;;;;;;;29.27;20.73;;;;;;;-0.66;76.64;99349.63;1088102;54;20061;-82
2022/12/11 00:24:56;;;;;;;28.88;20.13;;;;;;;-0.49;76.30;99340.72;1088016;54;20019;-82
2022/12/11 00:26:08;;;;;;;29.00;19.95;;;;;;;-0.51;76.12;99338.19;1088048;54;20035;-81
2022/12/11 00:27:10;;;;;;;29.33;19.95;;;;;;;-0.47;75.89;99344.94;1088009;54;20054;-81
2022/12/11 00:28:29;;;;;;;27.27;19.67;;;;;;;-0.47;76.08;99349.38;1088044;54;20030;-82
2022/12/11 00:29:33;;;;;;;28.20;19.73;;;;;;;-0.41;75.86;99340.28;1087502;54;20067;-80
2022/12/11 00:30:39;;;;;;;29.25;20.20;;;;;;;-0.39;75.68;99341.03;1087534;54;20069;-82
2022/12/11 00:31:43;;;;;;;28.10;19.65;;;;;;;-0.25;75.15;99345.44;1087448;54;20030;-81
2022/12/11 00:32:47;;;;;;;26.10;18.58;;;;;;;-0.25;74.98;99343.66;1087435;54;20049;-81
2022/12/11 00:33:52;;;;;;;26.45;18.38;;;;;;;-0.24;75.02;99340.09;1088577;47;20041;-82
2022/12/11 00:34:54;;;;;;;28.85;19.25;;;;;;;-0.16;74.75;99337.84;1087578;47;20102;-81
2022/12/11 00:35:58;;;;;;;26.48;18.35;;;;;;;-0.12;74.68;99335.03;1087534;54;20034;-80
2022/12/11 00:36:59;;;;;;;26.65;18.48;;;;;;;-0.15;74.54;99336.06;1087503;54;20067;-82
2022/12/11 00:38:03;;;;;;;29.20;18.88;;;;;;;-0.18;74.83;99337.09;1087441;54;20065;-81
2022/12/11 00:39:05;;;;;;;26.98;18.65;;;;;;;-0.16;74.74;99337.84;1087700;47;20691;-82
2022/12/11 00:40:11;;;;;;;26.98;19.27;;;;;;;-0.11;74.57;99344.63;1090245;47;20042;-83
2022/12/11 00:41:12;;;;;;;25.65;18.15;;;;;;;-0.10;74.35;99335.78;1087124;54;20022;-81
2022/12/11 00:42:16;;;;;;;27.42;19.63;;;;;;;-0.08;74.27;99347.03;1087410;54;20030;-82
2022/12/11 00:43:18;;;;;;;29.55;19.15;;;;;;;0.00;74.07;99336.91;1087324;54;20034;-81
2022/12/11 00:44:22;;;;;;;29.48;19.38;;;;;;;-0.02;74.14;99339.63;1087510;54;20037;-82
2022/12/11 00:45:23;;;;;;;29.25;18.88;;;;;;;-0.06;74.08;99332.88;1087522;54;20035;-79
2022/12/11 00:46:27;;;;;;;29.60;19.42;;;;;;;-0.06;73.96;99332.03;1087509;54;20031;-79
2022/12/11 00:47:29;;;;;;;26.77;18.92;;;;;;;-0.07;74.27;99341.69;1087343;54;20038;-82
2022/12/11 00:48:36;;;;;;;26.98;19.67;;;;;;;-0.03;74.19;99339.72;1087374;54;20046;-81
2022/12/11 00:49:37;;;;;;;26.15;17.77;;;;;;;-0.03;74.09;99343.19;1087398;54;20030;-82
2022/12/11 00:50:42;;;;;;;27.63;18.80;;;;;;;-0.07;74.26;99343.47;1087386;54;20042;-81
2022/12/11 00:51:43;;;;;;;27.13;20.08;;;;;;;-0.23;74.59;99344.41;1087431;54;20800;-82
2022/12/11 00:52:47;;;;;;;28.95;20.15;;;;;;;-0.13;74.83;99351.75;1087369;54;20047;-81
2022/12/11 00:53:52;;;;;;;25.67;18.70;;;;;;;0.11;74.00;99338.88;1087393;54;20053;-81
2022/12/11 00:54:53;;;;;;;27.42;19.17;;;;;;;0.17;73.75;99346.38;1087378;54;20070;-81
2022/12/11 00:55:57;;;;;;;22.98;16.67;;;;;;;0.31;73.38;99340.25;1087446;54;20090;-82
2022/12/11 00:56:59;;;;;;;23.80;17.80;;;;;;;0.34;73.33;99339.19;1087324;54;20042;-81
2022/12/11 00:58:03;;;;;;;25.63;18.08;;;;;;;0.41;73.11;99343.97;1087295;54;20062;-81
2022/12/11 00:59:04;;;;;;;22.88;16.40;;;;;;;0.51;73.00;99346.03;1087461;54;20814;-81
2022/12/11 01:00:11;;;;;;;23.92;16.88;;;;;;;0.53;72.58;99344.16;1087490;47;20034;-82
2022/12/11 01:01:18;;;;;;;24.35;17.35;;;;;;;0.57;72.52;99340.38;1087744;47;20022;-82
2022/12/11 01:02:19;;;;;;;23.42;16.52;;;;;;;0.60;72.36;99340.19;1087495;54;20075;-78
2022/12/11 01:03:24;;;;;;;21.75;15.95;;;;;;;0.65;72.11;99348.63;1087583;54;20035;-82
2022/12/11 01:04:28;;;;;;;22.52;16.30;;;;;;;0.59;72.25;99344.59;1087794;54;20034;-82
2022/12/11 01:05:32;;;;;;;22.88;16.75;;;;;;;0.67;72.36;99348.53;1087685;54;20034;-82
2022/12/11 01:06:36;;;;;;;21.80;15.63;;;;;;;0.71;72.08;99347.41;1087713;54;20026;-81
2022/12/11 01:07:39;;;;;;;20.90;14.73;;;;;;;0.77;71.96;99345.19;1087743;54;20058;-82
2022/12/11 01:08:43;;;;;;;21.63;15.57;;;;;;;0.77;71.91;99345.19;1087789;54;20026;-83
2022/12/11 01:11:04;;;;;;;20.75;14.75;;;;;;;0.73;71.62;99345.50;1087875;54;20030;-81
2022/12/11 01:12:08;;;;;;;23.23;16.50;;;;;;;0.68;71.44;99348.41;1088807;39;20609;-83
2022/12/11 01:13:10;;;;;;;24.65;17.77;;;;;;;0.64;71.72;99340.81;1087828;54;20698;-82
2022/12/11 01:14:15;;;;;;;23.27;16.90;;;;;;;0.68;71.73;99345.78;1087818;54;20030;-81
2022/12/11 01:15:17;;;;;;;22.60;15.55;;;;;;;0.73;71.70;99354.25;1087957;46;20018;-81
2022/12/11 01:16:21;;;;;;;23.98;16.13;;;;;;;0.72;71.38;99355.19;1087863;54;20089;-81
2022/12/11 01:17:23;;;;;;;22.83;15.80;;;;;;;0.77;71.35;99350.44;1088748;39;21071;-82
2022/12/11 01:18:29;;;;;;;21.73;15.82;;;;;;;0.82;71.48;99349.31;1087759;54;20030;-81
2022/12/11 01:19:33;;;;;;;23.42;15.85;;;;;;;0.78;71.04;99348.69;1087750;54;20034;-81
2022/12/11 01:20:39;;;;;;;23.98;16.70;;;;;;;0.83;71.20;99353.66;1088526;46;20098;-82
2022/12/11 01:21:43;;;;;;;21.95;15.77;;;;;;;0.81;71.16;99353.72;1087744;54;20034;-81
2022/12/11 01:22:45;;;;;;;21.75;15.57;;;;;;;0.81;70.91;99352.91;1087694;54;20034;-82
2022/12/11 01:23:51;;;;;;;20.15;14.75;;;;;;;0.84;70.88;99352.72;1087772;54;20627;-81
2022/12/11 01:24:53;;;;;;;19.33;14.13;;;;;;;0.83;70.89;99345.75;1087649;54;20054;-82
2022/12/11 01:25:57;;;;;;;20.98;15.30;;;;;;;0.86;70.89;99350.78;1087653;54;20026;-82
2022/12/11 01:26:58;;;;;;;23.50;15.88;;;;;;;0.73;71.01;99356.00;1087601;54;20034;-81
2022/12/11 01:28:02;;;;;;;22.55;16.02;;;;;;;0.56;71.40;99354.47;1087655;54;20042;-82
2022/12/11 01:29:06;;;;;;;22.75;16.55;;;;;;;0.49;71.29;99353.16;1087653;54;20046;-81
2022/12/11 01:30:09;;;;;;;26.60;18.17;;;;;;;0.39;71.68;99355.53;1087624;54;20061;-81
2022/12/11 01:31:15;;;;;;;27.17;19.10;;;;;;;0.26;72.05;99352.84;1087566;54;20031;-81
2022/12/11 01:32:16;;;;;;;25.00;17.92;;;;;;;0.32;72.10;99352.44;1092851;39;20658;-82
2022/12/11 01:33:21;;;;;;;24.35;17.95;;;;;;;0.52;71.57;99347.72;1087675;54;20134;-82
2022/12/11 01:34:22;;;;;;;24.67;16.80;;;;;;;0.65;71.19;99353.03;1087704;54;20034;-82
2022/12/11 01:35:29;;;;;;;22.48;16.02;;;;;;;0.71;70.88;99350.03;1087629;54;20034;-82
2022/12/11 01:36:31;;;;;;;20.92;14.73;;;;;;;0.80;70.73;99346.81;1087925;46;20679;-82
2022/12/11 01:37:35;;;;;;;20.20;14.93;;;;;;;0.82;70.70;99352.78;1087647;54;20037;-81
2022/12/11 01:38:37;;;;;;;21.48;14.68;;;;;;;0.87;70.74;99352.50;1087742;54;20038;-82
2022/12/11 01:39:41;;;;;;;19.65;14.18;;;;;;;0.86;70.27;99349.03;1087611;54;20082;-81
2022/12/11 01:40:46;;;;;;;20.30;14.40;;;;;;;0.90;70.19;99341.78;1090684;39;20693;-82
2022/12/11 01:41:50;;;;;;;20.10;13.68;;;;;;;0.91;70.32;99351.34;1087358;54;20049;-82
2022/12/11 01:42:51;;;;;;;18.92;13.55;;;;;;;0.94;70.12;99353.81;1090074;31;20729;-82
2022/12/11 01:44:04;;;;;;;20.13;13.68;;;;;;;0.90;69.63;99352.31;1087563;54;20046;-82
2022/12/11 01:45:41;;;;;;;21.45;14.40;;;;;;;0.93;69.47;99344.22;1087687;54;20033;-81
2022/12/11 01:46:42;;;;;;;19.40;13.20;;;;;;;1.00;69.88;99350.75;1087628;54;20042;-81
2022/12/11 01:47:47;;;;;;;18.52;13.45;;;;;;;1.01;69.50;99357.72;1087639;54;20046;-82
2022/12/11 01:48:51;;;;;;;17.30;12.00;;;;;;;1.01;69.69;99355.09;1091054;39;20803;-82
2022/12/11 01:49:52;;;;;;;17.85;12.52;;;;;;;1.04;69.39;99360.13;1087688;54;20035;-81
2022/12/11 01:51:01;;;;;;;18.40;12.70;;;;;;;1.02;68.95;99354.13;1087567;54;20030;-82
2022/12/11 01:52:07;;;;;;;18.70;12.85;;;;;;;1.05;69.17;99353.09;1087634;54;20034;-81
2022/12/11 01:53:15;;;;;;;17.65;13.32;;;;;;;1.07;69.08;99351.19;1087610;54;20129;-82
2022/12/11 01:54:19;;;;;;;18.70;12.85;;;;;;;1.04;68.98;99348.75;1087646;54;20035;-81
2022/12/11 01:55:23;;;;;;;17.35;12.63;;;;;;;1.07;69.08;99351.19;1088400;31;20691;-80
2022/12/11 01:56:28;;;;;;;16.15;11.98;;;;;;;1.12;68.89;99346.47;1087631;54;20066;-82
2022/12/11 01:57:30;;;;;;;18.35;13.15;;;;;;;1.02;69.01;99348.88;1088138;46;20730;-81
2022/12/11 01:58:36;;;;;;;18.98;14.30;;;;;;;0.84;69.31;99353.53;1087600;54;20030;-81
2022/12/11 01:59:42;;;;;;;20.48;15.18;;;;;;;0.81;69.37;99355.53;1087646;54;20031;-81
2022/12/11 02:00:46;;;;;;;22.10;15.63;;;;;;;0.73;69.69;99356.00;1087644;54;20055;-82
2022/12/11 02:01:53;;;;;;;22.95;16.13;;;;;;;0.68;69.92;99358.94;1087630;54;20065;-82
2022/12/11 02:02:57;;;;;;;23.80;16.73;;;;;;;0.62;69.97;99357.53;1087560;54;20801;-80
2022/12/11 02:04:00;;;;;;;23.38;16.45;;;;;;;0.69;69.93;99354.53;1087703;54;20038;-80
2022/12/11 02:05:06;;;;;;;22.90;15.77;;;;;;;0.73;69.67;99359.50;1087691;54;20034;-81
2022/12/11 02:06:35;;;;;;;20.98;15.05;;;;;;;0.53;69.48;99362.56;1088587;46;20038;-82
2022/12/11 02:07:40;;;;;;;21.15;14.98;;;;;;;0.58;69.73;99363.09;1092651;39;20753;-81
2022/12/11 02:08:44;;;;;;;21.92;15.80;;;;;;;0.49;69.87;99361.91;1087633;54;20041;-82
2022/12/11 02:09:46;;;;;;;23.98;16.77;;;;;;;0.47;70.09;99366.41;1087665;54;20030;-81
2022/12/11 02:11:05;;;;;;;23.88;16.90;;;;;;;0.40;70.17;99360.69;1087684;54;20042;-81
2022/12/11 02:12:14;;;;;;;22.40;16.23;;;;;;;0.38;70.30;99361.75;1087637;54;20809;-81
2022/12/11 02:13:23;;;;;;;23.70;17.10;;;;;;;0.43;70.46;99371.03;1087649;54;20071;-82
2022/12/11 02:14:32;;;;;;;23.88;16.70;;;;;;;0.54;70.00;99361.63;1087589;54;20046;-82
2022/12/11 02:15:41;;;;;;;24.15;17.20;;;;;;;0.45;70.54;99363.91;1087600;54;20031;-81
2022/12/11 02:16:47;;;;;;;22.02;16.73;;;;;;;0.39;70.63;99366.91;1087602;54;20054;-82
2022/12/11 02:17:57;;;;;;;25.48;17.20;;;;;;;0.33;71.01;99366.47;1087506;54;20027;-81
2022/12/11 02:19:01;;;;;;;;;;;;;;;0.18;71.02;99373.53;1087728;54;20042;-79
2022/12/11 02:20:10;;;;;;;23.65;16.20;;;;;;;0.19;71.10;99369.94;1087677;54;19949;-81
2022/12/11 02:21:19;;;;;;;24.40;17.70;;;;;;;0.27;70.94;99370.31;1087640;54;20030;-80
2022/12/11 02:22:37;;;;;;;25.98;17.63;;;;;;;0.19;71.20;99368.16;1088202;46;20083;-80
2022/12/11 02:24:00;;;;;;;24.67;17.65;;;;;;;0.12;71.41;99372.09;1089479;39;20551;-80
2022/12/11 02:25:13;;;;;;;25.48;17.65;;;;;;;0.17;71.72;99363.94;1087636;54;20056;-80
2022/12/11 02:26:33;;;;;;;24.02;18.52;;;;;;;0.21;71.32;99368.03;1087696;54;20034;-80
2022/12/11 02:27:40;;;;;;;25.63;17.43;;;;;;;0.18;71.47;99363.00;1087551;54;20034;-79
2022/12/11 02:28:51;;;;;;;25.23;17.83;;;;;;;0.18;71.47;99365.63;1087685;54;20361;-80
2022/12/11 02:30:00;;;;;;;25.30;18.00;;;;;;;0.06;72.08;99362.81;1088500;46;20014;-80
2022/12/11 02:31:08;;;;;;;27.48;19.27;;;;;;;0.11;72.12;99359.91;1087540;54;20034;-80
2022/12/11 02:32:16;;;;;;;26.85;19.08;;;;;;;-0.03;72.47;99363.38;1087631;54;20037;-81
2022/12/11 02:33:26;;;;;;;25.98;18.67;;;;;;;-0.04;72.96;99367.78;1087600;54;20753;-81
2022/12/11 02:34:36;;;;;;;26.70;18.85;;;;;;;0.04;72.76;99356.81;1087642;54;20015;-81
2022/12/11 02:35:44;;;;;;;25.65;18.92;;;;;;;-0.01;73.13;99364.97;1087684;47;20051;-80
2022/12/11 02:36:50;;;;;;;26.27;19.00;;;;;;;-0.04;73.24;99359.06;1087582;54;20046;-80
2022/12/11 02:38:00;;;;;;;26.05;18.90;;;;;;;-0.05;73.43;99360.00;1087578;54;21042;-81
2022/12/11 02:39:03;;;;;;;24.42;18.10;;;;;;;-0.07;73.38;99360.09;1087567;54;20030;-79
2022/12/11 02:40:11;;;;;;;25.20;18.67;;;;;;;-0.01;73.62;99351.00;1087649;54;20090;-80
2022/12/11 02:41:12;;;;;;;25.08;18.08;;;;;;;0.21;72.64;99354.91;1087641;54;20030;-81
2022/12/11 02:42:17;;;;;;;25.85;18.60;;;;;;;0.12;72.93;99353.72;1087417;54;20086;-81
2022/12/11 02:43:22;;;;;;;25.55;18.67;;;;;;;0.07;73.31;99350.50;1087624;54;20057;-80
2022/12/11 02:44:32;;;;;;;25.38;18.23;;;;;;;0.11;72.90;99344.97;1087750;54;20115;-80
2022/12/11 02:45:36;;;;;;;25.13;18.60;;;;;;;0.01;73.51;99349.09;1087692;54;20038;-80
2022/12/11 02:46:41;;;;;;;25.35;18.25;;;;;;;0.11;73.10;99349.38;1087681;54;20015;-80
2022/12/11 02:47:46;;;;;;;25.42;19.08;;;;;;;0.01;73.54;99349.09;1087628;46;20061;-80
2022/12/11 02:48:53;;;;;;;25.83;17.92;;;;;;;0.01;73.73;99348.25;1087610;54;20027;-81
2022/12/11 02:49:57;;;;;;;25.85;18.27;;;;;;;0.03;73.69;99346.38;1087597;54;20916;-80
2022/12/11 02:51:02;;;;;;;27.27;19.02;;;;;;;0.06;73.61;99346.19;1087567;54;20930;-80
2022/12/11 02:52:06;;;;;;;26.13;18.65;;;;;;;0.01;73.64;99346.47;1087623;54;21106;-80
2022/12/11 02:53:12;;;;;;;28.45;20.13;;;;;;;-0.03;73.88;99342.34;1088498;46;20738;-79
2022/12/11 02:54:19;;;;;;;27.10;20.17;;;;;;;-0.09;74.51;99347.97;1087669;54;20042;-81
2022/12/11 02:55:25;;;;;;;27.33;19.83;;;;;;;-0.03;74.15;99342.34;1088986;39;20524;-81
2022/12/11 02:56:31;;;;;;;27.20;19.30;;;;;;;-0.12;74.48;99341.13;1087543;54;20034;-80
2022/12/11 02:57:43;;;;;;;27.95;19.27;;;;;;;-0.05;74.33;99341.59;1087525;54;20030;-81
2022/12/11 02:58:49;;;;;;;26.40;19.58;;;;;;;-0.13;74.60;99330.72;1087514;54;21081;-79
2022/12/11 02:59:55;;;;;;;26.20;19.25;;;;;;;-0.12;74.81;99327.16;1087594;54;20044;-81
2022/12/11 03:01:00;;;;;;;27.60;19.00;;;;;;;-0.05;74.55;99331.09;1087601;54;20055;-79
2022/12/11 03:02:02;;;;;;;27.50;19.23;;;;;;;-0.12;74.69;99337.66;1087542;54;20030;-81
2022/12/11 03:03:06;;;;;;;26.67;18.60;;;;;;;0.01;74.12;99332.50;1087536;54;20030;-80
2022/12/11 03:04:08;;;;;;;25.83;18.92;;;;;;;0.00;74.27;99331.66;1087977;39;20499;-80
2022/12/11 03:05:14;;;;;;;25.27;18.10;;;;;;;-0.01;74.29;99332.59;1087596;54;20046;-80
2022/12/11 03:06:19;;;;;;;25.23;18.15;;;;;;;-0.06;74.29;99332.03;1087600;54;20031;-79
2022/12/11 03:07:27;;;;;;;25.38;18.10;;;;;;;-0.05;74.26;99338.97;1087591;54;20030;-81
2022/12/11 03:08:28;;;;;;;24.95;17.45;;;;;;;-0.10;74.44;99338.44;1087531;54;20057;-80
2022/12/11 03:09:33;;;;;;;25.90;18.30;;;;;;;-0.03;74.26;99342.34;1087497;54;20064;-80
2022/12/11 03:10:34;;;;;;;23.23;17.50;;;;;;;0.04;74.27;99340.19;1087559;54;20034;-80
2022/12/11 03:11:39;;;;;;;24.60;18.52;;;;;;;-0.13;74.73;99347.31;1087484;54;20034;-81
2022/12/11 03:12:43;;;;;;;24.70;18.27;;;;;;;-0.17;74.80;99344.03;1087630;54;20026;-80
2022/12/11 03:13:47;;;;;;;25.58;18.20;;;;;;;-0.08;74.68;99349.66;1087625;54;20777;-80
2022/12/11 03:14:52;;;;;;;28.40;20.05;;;;;;;-0.17;75.07;99354.53;1088306;46;20071;-80
2022/12/11 03:16:08;;;;;;;25.90;18.63;;;;;;;0.10;74.35;99347.69;1088042;39;20854;-80
2022/12/11 03:17:18;;;;;;;26.08;18.33;;;;;;;0.08;74.48;99355.69;1087596;54;20041;-81
2022/12/11 03:18:27;;;;;;;27.75;19.20;;;;;;;-0.05;74.67;99355.56;1087540;54;20057;-80
2022/12/11 03:19:38;;;;;;;28.52;20.05;;;;;;;-0.01;74.87;99356.25;1087471;54;20034;-82
2022/12/11 03:20:44;;;;;;;27.35;19.27;;;;;;;0.07;74.59;99363.66;1087505;54;20041;-80
2022/12/11 03:21:54;;;;;;;26.55;19.10;;;;;;;0.21;74.07;99368.03;1087527;54;21044;-81
2022/12/11 03:23:03;;;;;;;25.75;18.73;;;;;;;0.17;74.11;99375.28;1087515;54;20030;-80
2022/12/11 03:24:11;;;;;;;26.50;19.20;;;;;;;0.08;74.35;99360.94;1087557;54;20038;-80
2022/12/11 03:25:22;;;;;;;28.88;20.13;;;;;;;0.03;74.80;99372.69;1087468;54;20034;-79
2022/12/11 03:26:24;;;;;;;26.73;18.55;;;;;;;0.19;74.20;99367.31;1087328;54;20098;-81
2022/12/11 03:27:32;;;;;;;26.15;18.75;;;;;;;0.22;74.03;99372.38;1087489;54;20042;-80
2022/12/11 03:28:41;;;;;;;27.17;19.10;;;;;;;0.27;73.92;99372.94;1087502;54;20046;-81
2022/12/11 03:29:57;;;;;;;25.05;18.50;;;;;;;0.13;74.46;99366.75;1087470;54;20026;-81
2022/12/11 03:31:04;;;;;;;25.55;18.48;;;;;;;0.20;74.20;99367.22;1087475;54;20058;-81
2022/12/11 03:32:13;;;;;;;25.75;18.35;;;;;;;0.24;73.89;99376.59;1087512;54;20041;-80
2022/12/11 03:33:21;;;;;;;27.63;19.25;;;;;;;0.30;73.88;99370.97;1087537;54;20035;-80
2022/12/11 03:34:30;;;;;;;26.67;18.85;;;;;;;0.35;73.91;99362.78;1087877;46;20026;-81
2022/12/11 03:35:35;;;;;;;24.98;19.15;;;;;;;0.50;73.55;99357.47;1087579;46;20030;-81
2022/12/11 03:36:41;;;;;;;24.13;17.63;;;;;;;0.60;73.16;99363.84;1087961;46;20750;-80
2022/12/11 03:37:44;;;;;;;23.88;17.17;;;;;;;0.68;73.17;99366.84;1087457;54;20691;-80
2022/12/11 03:38:53;;;;;;;24.33;17.40;;;;;;;0.67;72.74;99373.03;1087535;54;20053;-80
2022/12/11 03:40:00;;;;;;;24.92;17.88;;;;;;;0.57;73.20;99364.91;1087542;54;20061;-80
2022/12/11 03:41:07;;;;;;;25.42;18.75;;;;;;;0.52;73.12;99363.50;1087523;54;20034;-81
2022/12/11 03:42:12;;;;;;;26.25;17.90;;;;;;;0.69;72.92;99370.31;1087526;54;20061;-82
2022/12/11 03:43:17;;;;;;;25.92;17.98;;;;;;;0.74;72.82;99374.34;1086961;54;20078;-80
2022/12/11 03:44:21;;;;;;;24.27;17.00;;;;;;;0.77;72.74;99363.63;1089854;47;20085;-79
2022/12/11 03:45:30;;;;;;;27.48;19.50;;;;;;;0.45;72.94;99371.78;1087913;39;20574;-80
2022/12/11 03:46:35;;;;;;;28.00;20.75;;;;;;;0.21;73.64;99373.31;1087535;54;20068;-81
2022/12/11 03:47:42;;;;;;;29.33;19.95;;;;;;;0.21;73.87;99378.56;1087544;54;20082;-80
2022/12/11 03:48:47;;;;;;;27.27;19.05;;;;;;;0.20;73.81;99375.09;1087439;54;20038;-81
2022/12/11 03:49:54;;;;;;;27.20;20.08;;;;;;;0.10;74.42;99379.25;1087556;54;20037;-81
2022/12/11 03:50:57;;;;;;;27.23;19.10;;;;;;;0.10;74.42;99380.06;1087471;54;20038;-81
2022/12/11 03:52:04;;;;;;;28.80;19.85;;;;;;;0.09;74.54;99370.53;1087507;54;20034;-81
2022/12/11 03:53:06;;;;;;;28.27;19.75;;;;;;;0.09;74.58;99375.78;1087422;54;20034;-80
2022/12/11 03:54:12;;;;;;;28.77;20.83;;;;;;;0.05;74.52;99370.81;1087552;54;20030;-81
2022/12/11 03:55:16;;;;;;;29.17;20.98;;;;;;;0.09;74.50;99374.91;1087463;54;20042;-81
2022/12/11 03:56:23;;;;;;;27.52;19.08;;;;;;;0.14;74.15;99373.69;1089509;39;20536;-80
2022/12/11 03:57:29;;;;;;;26.98;19.70;;;;;;;0.27;73.91;99370.31;1087482;54;20030;-80
2022/12/11 03:58:33;;;;;;;28.08;19.85;;;;;;;0.15;74.26;99374.53;1087528;54;20030;-81
2022/12/11 03:59:41;;;;;;;26.58;20.35;;;;;;;0.15;74.16;99371.91;1087802;46;20037;-80
2022/12/11 04:00:48;;;;;;;26.73;19.42;;;;;;;0.18;74.14;99373.53;1088433;46;20097;-80
2022/12/11 04:01:49;;;;;;;26.40;18.67;;;;;;;0.30;73.91;99372.72;1088910;46;20053;-80
2022/12/11 04:04:12;;;;;;;27.65;19.73;;;;;;;0.39;73.54;99366.91;1087879;54;20030;-81
2022/12/11 04:05:13;;;;;;;22.98;17.08;;;;;;;0.53;73.05;99363.41;1087888;54;20069;-81
2022/12/11 04:06:21;;;;;;;24.65;18.27;;;;;;;0.56;73.03;99360.56;1087962;47;20035;-81
2022/12/11 04:07:22;;;;;;;26.15;18.42;;;;;;;0.62;72.70;99364.59;1088051;46;20062;-79
2022/12/11 04:08:33;;;;;;;24.48;17.40;;;;;;;0.70;72.39;99367.59;1089305;46;20031;-81
2022/12/11 04:09:34;;;;;;;24.40;17.95;;;;;;;0.66;72.70;99360.00;1087863;54;20064;-80
2022/12/11 04:10:40;;;;;;;24.63;17.58;;;;;;;0.67;72.63;99359.88;1088648;46;20030;-79
2022/12/11 04:11:41;;;;;;;26.08;18.67;;;;;;;0.74;72.31;99357.72;1088135;47;20029;-80
2022/12/11 04:12:46;;;;;;;24.77;17.77;;;;;;;0.74;72.17;99357.72;1088025;54;20037;-81
2022/12/11 04:15:00;;;;;;;25.08;17.50;;;;;;;0.73;72.17;99354.25;1087848;47;20050;-80
2022/12/11 04:15:10;;;;;;;27.25;17.80;;;;;;;0.80;72.29;99354.69;1087836;54;20720;-82
2022/12/11 04:16:17;;;;;;;28.67;19.02;;;;;;;0.77;72.12;99358.34;1087891;54;20107;-81
2022/12/11 04:25:09;;;;;;;26.52;18.55;;;;;;;0.72;72.31;99359.59;1087199;54;20034;-80
2022/12/11 04:26:14;;;;;;;29.98;19.60;;;;;;;0.59;72.55;99359.53;1087122;54;20079;-80
2022/12/11 04:27:47;;;;;;;27.98;19.60;;;;;;;0.46;73.29;99360.34;1086997;54;20054;-80
2022/12/11 04:28:41;;;;;;;31.05;21.38;;;;;;;0.43;73.28;99354.41;1087056;54;20067;-80
2022/12/11 04:29:45;;;;;;;27.58;19.85;;;;;;;0.51;73.26;99361.81;1087166;54;20026;-80
2022/12/11 04:30:48;;;;;;;28.30;19.25;;;;;;;0.60;73.00;99367.34;1087135;54;20092;-80
2022/12/11 04:31:55;;;;;;;28.60;19.45;;;;;;;0.72;72.66;99362.22;1087014;54;20038;-80
2022/12/11 04:32:56;;;;;;;28.63;20.10;;;;;;;0.64;72.88;99356.59;1088605;31;20805;-81
2022/12/11 04:34:00;;;;;;;28.27;20.40;;;;;;;0.52;72.98;99353.81;1087017;54;20987;-80
2022/12/11 04:35:02;;;;;;;31.00;22.55;;;;;;;0.41;73.52;99348.41;1087124;54;20069;-80
2022/12/11 04:36:07;;;;;;;32.22;22.25;;;;;;;0.51;73.42;99353.91;1087086;54;20041;-81
2022/12/11 04:37:08;;;;;;;29.05;20.38;;;;;;;0.69;73.13;99354.53;1087140;54;20035;-80
2022/12/11 04:38:14;;;;;;;28.73;20.35;;;;;;;0.77;72.79;99352.25;1087438;54;20030;-80
2022/12/11 04:39:15;;;;;;;29.10;19.80;;;;;;;0.82;72.56;99346.69;1087463;54;20038;-80
2022/12/11 04:40:22;;;;;;;24.70;17.58;;;;;;;0.89;72.39;99355.88;1088439;46;20033;-79
2022/12/11 04:41:23;;;;;;;24.75;17.45;;;;;;;0.94;72.22;99348.53;1087391;54;20078;-81
2022/12/11 04:42:27;;;;;;;25.08;17.67;;;;;;;0.92;72.28;99350.41;1087395;54;21154;-80
2022/12/11 04:43:29;;;;;;;30.35;20.95;;;;;;;0.73;72.79;99345.50;1087177;54;20042;-81
2022/12/11 04:44:35;;;;;;;31.23;22.25;;;;;;;0.35;73.61;99354.91;1086909;54;20027;-80
2022/12/11 04:45:36;;;;;;;32.90;22.58;;;;;;;0.27;74.19;99346.66;1087459;54;20058;-80
2022/12/11 04:46:40;;;;;;;32.33;22.17;;;;;;;0.18;74.27;99349.84;1087420;54;20026;-81
2022/12/11 04:47:44;;;;;;;36.95;24.98;;;;;;;0.08;74.97;99353.06;1087367;54;20061;-80
2022/12/11 04:48:49;;;;;;;32.58;23.02;;;;;;;0.09;74.90;99354.75;1087355;54;20030;-82
2022/12/11 04:49:51;;;;;;;32.35;23.45;;;;;;;0.29;74.65;99347.38;1087480;54;20042;-79
2022/12/11 04:50:55;;;;;;;33.83;23.10;;;;;;;0.10;74.48;99342.44;1087479;54;20034;-80
2022/12/11 04:51:56;;;;;;;34.85;24.70;;;;;;;0.03;75.26;99352.47;1087412;54;20046;-79
2022/12/11 04:53:00;;;;;;;37.53;24.20;;;;;;;0.25;74.53;99341.47;1087358;54;20018;-80
2022/12/11 04:54:02;;;;;;;34.75;23.45;;;;;;;0.40;74.23;99344.91;1087466;54;20773;-79
2022/12/11 04:55:07;;;;;;;32.60;23.23;;;;;;;0.26;74.26;99339.69;1087442;54;20030;-80
2022/12/11 04:56:11;;;;;;;35.78;24.27;;;;;;;0.27;74.24;99338.75;1087503;54;20042;-81
2022/12/11 04:57:15;;;;;;;34.53;23.13;;;;;;;0.42;74.01;99340.41;1087373;54;20041;-81
2022/12/11 04:58:17;;;;;;;32.72;22.50;;;;;;;0.40;73.68;99337.03;1087422;54;20046;-80
2022/12/11 04:59:21;;;;;;;33.53;23.25;;;;;;;0.54;73.51;99335.31;1087426;54;20042;-85
2022/12/11 05:00:23;;;;;;;33.58;22.85;;;;;;;0.47;73.71;99337.50;1087756;54;20030;-80
2022/12/11 05:01:27;;;;;;;30.92;22.08;;;;;;;0.60;73.29;99335.78;1089741;39;20774;-80
2022/12/11 05:02:28;;;;;;;32.63;21.52;;;;;;;0.65;73.03;99338.13;1087673;54;20690;-81
2022/12/11 05:03:35;;;;;;;32.65;21.98;;;;;;;0.70;72.82;99336.00;1089611;39;20564;-80
2022/12/11 05:04:36;;;;;;;31.90;21.70;;;;;;;0.63;72.98;99337.34;1087712;54;20023;-80
2022/12/11 05:05:41;;;;;;;34.60;22.00;;;;;;;0.74;72.81;99337.50;1087691;54;20045;-80
2022/12/11 05:06:42;;;;;;;31.45;22.02;;;;;;;0.68;72.79;99337.06;1087726;54;20061;-80
2022/12/11 05:07:47;;;;;;;34.33;22.65;;;;;;;0.74;72.55;99337.50;1087674;54;20037;-81
2022/12/11 05:08:48;;;;;;;30.73;21.40;;;;;;;0.72;72.82;99334.13;1087635;54;20066;-80
2022/12/11 05:09:52;;;;;;;30.98;21.33;;;;;;;0.76;72.81;99335.59;1089736;39;20601;-81
2022/12/11 05:10:55;;;;;;;39.05;25.20;;;;;;;0.36;73.38;99332.94;1088255;46;20533;-80
2022/12/11 05:11:59;;;;;;;36.53;25.38;;;;;;;0.48;73.70;99341.81;1087704;54;20033;-81
2022/12/11 05:13:01;;;;;;;37.10;24.08;;;;;;;0.57;73.16;99338.59;1087669;54;20030;-80
2022/12/11 05:14:05;;;;;;;35.17;23.73;;;;;;;0.60;73.01;99332.28;1087749;54;20034;-81